Thunderstorms From: 26-05-2018 21:24 Until: 27-05-2018 15:00 warning for: Thunderstorms Level: Yellow info button

Although rather usual in this region, locally or potentially dangerous phenomena are expected. (such as local winds, summer thunderstorms, rising streams or high waves) Be aware and pay attention to the latest weather updates, especially if you carry out activities exposed to weather or close to a stream or shoreline. 


Meteo18 Weather Cam more information Meteo18 Weather Cam


warning for Thunderstorms more information blitzortung!


Rain radar more information rain snow radar


Visit our other weather sites:

Template documentation
and downloads

And another site



Weather Underground History page Text

Daily Summary for May 24, 2016 Units:  Metric    English   Both
« Previous Day
Next Day »
Daily Weekly Monthly Yearly Custom
  High: Low: Average:
Temperature: -17.8 °C -14.8 °C -11.6 °C
Dew Point: -17.8 °C -15 °C -12.9 °C
Humidity: Humidity % 60 % 86 %
Wind Speed: 0 km/h 0 km/h 1.8 km/h
Wind Gust: 0 km/h - -
Wind:- - ENE
Pressure: 0 hPa 34303.6 hPa -
Precipitation: 7.62 mm    
Historical Graphs
 
 
Tabular Data for May 24, 2016
Time Temperature Dew Point Pressure Wind Wind Speed Wind Gust Humidity Rainfall Rate (Hourly)
-17.8 °C -17.8 °C 0 hPa Calm     Humidity % 0 mm
00:02 -13.2 °C -13.6 °C 34533.8 hPa Calm     96 % 0 mm
00:07 -13.2 °C -13.6 °C 34533.8 hPa Calm     96 % 0 mm
00:12 -13.2 °C -13.6 °C 34533.8 hPa Calm     96 % 0 mm
00:17 -13.3 °C -13.6 °C 34533.8 hPa Calm     96 % 0 mm
00:22 -13.3 °C -13.7 °C 34533.8 hPa Calm     96 % 0 mm
00:27 -13.4 °C -13.7 °C 34520.3 hPa Calm     96 % 0 mm
00:32 -13.4 °C -13.8 °C 34520.3 hPa Calm     96 % 0 mm
00:37 -13.5 °C -13.8 °C 34520.3 hPa Calm     96 % 0 mm
00:42 -13.6 °C -13.9 °C 34520.3 hPa Calm     96 % 0 mm
00:47 -13.6 °C -13.9 °C 34520.3 hPa Calm     96 % 0 mm
00:52 -13.7 °C -14 °C 34520.3 hPa Calm     96 % 0 mm
00:57 -13.6 °C -13.9 °C 34520.3 hPa Calm     96 % 0 mm
01:02 -13.6 °C -13.9 °C 34520.3 hPa Calm     96 % 0 mm
01:07 -13.6 °C -13.9 °C 34520.3 hPa Calm     96 % 0 mm
01:12 -13.7 °C -14 °C 34520.3 hPa Calm     96 % 0 mm
01:17 -13.7 °C -14.1 °C 34520.3 hPa Calm     96 % 0 mm
01:22 -13.8 °C -14.2 °C 34520.3 hPa Calm     96 % 0 mm
01:27 -13.9 °C -14.2 °C 34520.3 hPa Calm     96 % 0 mm
01:32 -13.9 °C -14.3 °C 34510.1 hPa Calm     96 % 0 mm
01:37 -14 °C -14.3 °C 34510.1 hPa Calm     96 % 0 mm
01:42 -14 °C -14.2 °C 34510.1 hPa Calm     97 % 0 mm
01:47 -14 °C -14.2 °C 34510.1 hPa Calm     97 % 0 mm
01:52 -14 °C -14.2 °C 34510.1 hPa Calm     97 % 0 mm
02:02 -13.9 °C -14.2 °C 34510.1 hPa Calm     97 % 0 mm
02:07 -13.8 °C -14.1 °C 34510.1 hPa Calm     97 % 0 mm
02:12 -13.7 °C -13.9 °C 34510.1 hPa Calm     97 % 0 mm
02:17 -13.6 °C -13.8 °C 34510.1 hPa Calm     97 % 0 mm
02:22 -13.5 °C -13.7 °C 34510.1 hPa Calm     98 % 0 mm
02:27 -13.4 °C -13.7 °C 34510.1 hPa Calm     97 % 0 mm
02:32 -13.4 °C -13.6 °C 34510.1 hPa Calm     97 % 0 mm
02:37 -13.3 °C -13.6 °C 34510.1 hPa Calm     97 % 0 mm
02:42 -13.2 °C -13.4 °C 34510.1 hPa Calm     97 % 0 mm
02:52 -13 °C -13.2 °C 34510.1 hPa Calm     98 % 0 mm
02:57 -12.9 °C -13.1 °C 34510.1 hPa Calm     98 % 0 mm
03:02 -12.9 °C -13.2 °C 34510.1 hPa Calm     97 % 0 mm
03:07 -12.9 °C -13.2 °C 34510.1 hPa Calm     97 % 0 mm
03:12 -12.9 °C -13.2 °C 34510.1 hPa Calm     97 % 0 mm
03:17 -13 °C -13.2 °C 34510.1 hPa Calm     97 % 0 mm
03:22 -13.1 °C -13.3 °C 34510.1 hPa Calm     97 % 0 mm
03:27 -13.1 °C -13.3 °C 34496.6 hPa Calm     97 % 0 mm
03:32 -13.2 °C -13.4 °C 34496.6 hPa Calm     97 % 0 mm
03:37 -13.3 °C -13.5 °C 34496.6 hPa Calm     97 % 0 mm
03:47 -13.4 °C -13.7 °C 34496.6 hPa Calm     97 % 0 mm
03:52 -13.4 °C -13.7 °C 34496.6 hPa Calm     97 % 0 mm
03:57 -13.6 °C -13.8 °C 34496.6 hPa Calm     97 % 0 mm
04:02 -13.7 °C -13.9 °C 34496.6 hPa Calm     97 % 0 mm
04:07 -13.7 °C -13.9 °C 34496.6 hPa Calm     97 % 0 mm
04:12 -13.7 °C -13.9 °C 34496.6 hPa Calm     97 % 0 mm
04:17 -13.7 °C -13.9 °C 34496.6 hPa Calm     97 % 0 mm
04:22 -13.7 °C -13.9 °C 34496.6 hPa Calm     97 % 0 mm
04:27 -13.8 °C -14 °C 34496.6 hPa Calm     97 % 0 mm
04:32 -13.8 °C -14.1 °C 34496.6 hPa Calm     97 % 0 mm
04:37 -13.8 °C -14.1 °C 34496.6 hPa Calm     97 % 0 mm
04:42 -13.8 °C -14.1 °C 34496.6 hPa Calm     97 % 0 mm
04:47 -13.8 °C -13.9 °C 34496.6 hPa Calm     98 % 0 mm
04:52 -13.7 °C -13.9 °C 34496.6 hPa Calm     98 % 0 mm
05:02 -13.8 °C -14.1 °C 34486.4 hPa Calm     97 % 0 mm
05:12 -14.1 °C -14.3 °C 34496.6 hPa Calm     97 % 0 mm
05:17 -14.2 °C -14.4 °C 34496.6 hPa Calm     97 % 0 mm
05:22 -14.2 °C -14.4 °C 34496.6 hPa Calm     97 % 0 mm
05:32 -14.3 °C -14.6 °C 34496.6 hPa Calm     97 % 0 mm
05:42 -14.3 °C -14.6 °C 34496.6 hPa Calm     97 % 7.62 mm
05:47 -14.4 °C -14.6 °C 34496.6 hPa Calm     97 % 7.62 mm
05:52 -14.5 °C -14.7 °C 34496.6 hPa Calm     97 % 7.62 mm
06:02 -14.6 °C -14.8 °C 34496.6 hPa Calm     97 % 7.62 mm
06:12 -14.6 °C -14.8 °C 34496.6 hPa Calm     97 % 7.62 mm
06:17 -14.6 °C -14.8 °C 34496.6 hPa Calm     97 % 7.62 mm
06:22 -14.6 °C -14.8 °C 34496.6 hPa Calm     97 % 7.62 mm
06:32 -14.7 °C -14.9 °C 34496.6 hPa Calm     97 % 7.62 mm
06:42 -14.8 °C -15 °C 34496.6 hPa Calm     97 % 0 mm
06:47 -14.6 °C -14.8 °C 34496.6 hPa Calm     98 % 0 mm
06:52 -14.5 °C -14.7 °C 34496.6 hPa Calm     98 % 0 mm
07:02 -14.4 °C -14.6 °C 34496.6 hPa Calm     98 % 0 mm
07:12 -14.1 °C -14.3 °C 34496.6 hPa Calm     98 % 0 mm
07:17 -14 °C -14.2 °C 34486.4 hPa Calm     98 % 0 mm
07:22 -13.8 °C -14 °C 34486.4 hPa Calm     98 % 0 mm
07:32 -13.6 °C -13.7 °C 34486.4 hPa Calm     98 % 0 mm
07:37 -13.4 °C -13.6 °C 34486.4 hPa Calm     98 % 0 mm
07:42 -13.2 °C -13.3 °C 34486.4 hPa Calm     98 % 0 mm
07:47 -12.9 °C -13.1 °C 34486.4 hPa Calm     98 % 0 mm
07:52 -12.9 °C -13.1 °C 34486.4 hPa Calm     98 % 0 mm
07:57 -12.8 °C -12.9 °C 34486.4 hPa SSE 2.6 km/h   98 % 0 mm
08:02 -12.7 °C -12.8 °C 34486.4 hPa Calm     98 % 0 mm
08:12 -12.6 °C -12.8 °C 34486.4 hPa SE 2.6 km/h 2.6 km/h 98 % 0 mm
08:17 -12.6 °C -12.7 °C 34486.4 hPa Calm   2.6 km/h 98 % 0 mm
08:22 -12.5 °C -12.7 °C 34486.4 hPa Calm   2.6 km/h 98 % 0 mm
08:32 -12.3 °C -12.4 °C 34486.4 hPa Calm   2.6 km/h 98 % 0 mm
08:42 -12.2 °C -12.3 °C 34486.4 hPa Calm   7.7 km/h 98 % 0 mm
08:47 -12.2 °C -12.3 °C 34486.4 hPa Calm   10.3 km/h 98 % 0 mm
08:52 -12.1 °C -12.3 °C 34486.4 hPa Calm   10.3 km/h 98 % 0 mm
09:02 -12.1 °C -12.3 °C 34486.4 hPa Calm   12.9 km/h 97 % 0 mm
09:12 -11.8 °C -12.1 °C 34486.4 hPa NE 2.6 km/h 10.3 km/h 97 % 0 mm
09:17 -11.7 °C -12 °C 34486.4 hPa Calm   7.7 km/h 97 % 0 mm
09:22 -11.6 °C -11.9 °C 34486.4 hPa Calm   7.7 km/h 96 % 0 mm
09:32 -11.3 °C -11.6 °C 34486.4 hPa NE 7.7 km/h 10.3 km/h 96 % 0 mm
09:42 -11.3 °C -11.9 °C 34486.4 hPa Calm   10.3 km/h 93 % 0 mm
09:47 -11.4 °C -12.2 °C 34486.4 hPa ENE 2.6 km/h 10.3 km/h 92 % 0 mm
09:52 -11.3 °C -11.9 °C 34476.3 hPa NE 5.1 km/h 10.3 km/h 93 % 0 mm
09:57 -11.2 °C -11.9 °C 34476.3 hPa NE 2.6 km/h 10.3 km/h 92 % 0 mm
10:02 -10.9 °C -11.6 °C 34476.3 hPa NNE 2.6 km/h 10.3 km/h 92 % 0 mm
10:12 -10.8 °C -11.8 °C 34476.3 hPa Calm   10.3 km/h 89 % 0 mm
10:17 -10.9 °C -11.9 °C 34476.3 hPa ENE 5.1 km/h 10.3 km/h 89 % 0 mm
10:22 -11 °C -12 °C 34476.3 hPa NE 5.1 km/h 10.3 km/h 89 % 0 mm
10:32 -11.1 °C -11.9 °C 34476.3 hPa East 2.6 km/h 12.9 km/h 91 % 0 mm
10:42 -11.2 °C -12.1 °C 34476.3 hPa Calm   12.9 km/h 90 % 0 mm
10:52 -11.1 °C -11.9 °C 34476.3 hPa NE 5.1 km/h 10.3 km/h 90 % 0 mm
11:02 -11.1 °C -12.1 °C 34462.7 hPa ENE 5.1 km/h 10.3 km/h 89 % 0 mm
11:12 -10.8 °C -11.8 °C 34462.7 hPa Calm   10.3 km/h 89 % 0 mm
11:22 -10.6 °C -11.6 °C 34462.7 hPa NE 10.3 km/h 10.3 km/h 89 % 0 mm
11:32 -10.8 °C -12 °C 34462.7 hPa Calm   15.6 km/h 87 % 0 mm
11:52 -11.3 °C -12.3 °C 34462.7 hPa Calm   15.6 km/h 89 % 0 mm
11:57 -11.1 °C -12.2 °C 34462.7 hPa NE 7.7 km/h 18.2 km/h 88 % 0 mm
12:02 -11.1 °C -12.1 °C 34462.7 hPa Calm   18.2 km/h 88 % 0 mm
12:12 -10.9 °C -12.2 °C 34462.7 hPa Calm   15.6 km/h 86 % 0 mm
12:17 -10.8 °C -12.1 °C 34462.7 hPa NE 5.1 km/h 12.9 km/h 86 % 0 mm
12:22 -10.6 °C -12 °C 34452.6 hPa ENE 2.6 km/h 12.9 km/h 84 % 0 mm
12:27 -10.2 °C -11.9 °C 34452.6 hPa Calm   12.9 km/h 82 % 0 mm
12:32 -10 °C -11.9 °C 34452.6 hPa NE 7.7 km/h 12.9 km/h 80 % 0 mm
12:42 -10.2 °C -12 °C 34452.6 hPa East 7.7 km/h 10.3 km/h 81 % 0 mm
12:52 -10.1 °C -11.9 °C 34442.4 hPa NE 7.7 km/h 15.6 km/h 80 % 0 mm
13:07 -9.5 °C -11.5 °C 34428.8 hPa ENE 2.6 km/h 20.8 km/h 79 % 0 mm
13:12 -9.4 °C -11.6 °C 34428.8 hPa NE 5.1 km/h 15.6 km/h 78 % 0 mm
13:17 -9.3 °C -11.7 °C 34428.8 hPa North 5.1 km/h 15.6 km/h 76 % 0 mm
13:22 -9.4 °C -11.8 °C 34418.7 hPa ENE 10.3 km/h 12.9 km/h 76 % 0 mm
13:32 -9.3 °C -11.6 °C 34418.7 hPa North 7.7 km/h 23.3 km/h 76 % 0 mm
13:42 -8.6 °C -11.6 °C 34405.1 hPa South 5.1 km/h 18.2 km/h 71 % 0 mm
13:47 -8.8 °C -11.7 °C 34405.1 hPa NNE 7.7 km/h 15.6 km/h 71 % 0 mm
13:52 -8.6 °C -11.5 °C 34405.1 hPa NE 5.1 km/h 15.6 km/h 71 % 0 mm
13:57 -8.7 °C -11.8 °C 34405.1 hPa NE 2.6 km/h 15.6 km/h 69 % 0 mm
14:02 -8.9 °C -11.9 °C 34405.1 hPa East 2.6 km/h 20.8 km/h 70 % 0 mm
14:12 -8.6 °C -11.6 °C 34405.1 hPa NE 10.3 km/h 20.8 km/h 71 % 0 mm
14:17 -8.5 °C -11.8 °C 34405.1 hPa NE 5.1 km/h 15.6 km/h 68 % 0 mm
14:27 -7.9 °C -11.6 °C 34405.1 hPa ENE 2.6 km/h 12.9 km/h 65 % 0 mm
14:32 -8.1 °C -11.8 °C 34395 hPa ESE 5.1 km/h 12.9 km/h 65 % 0 mm
14:37 -8.2 °C -11.3 °C 34395 hPa NNE 10.3 km/h 12.9 km/h 70 % 0 mm
14:47 -8.3 °C -11.9 °C 34395 hPa NE 5.1 km/h 15.6 km/h 65 % 0 mm
14:52 -8.4 °C -12 °C 34395 hPa NNE 5.1 km/h 15.6 km/h 66 % 0 mm
15:07 -8.2 °C -11.8 °C 34384.8 hPa Calm   7.7 km/h 66 % 0 mm
15:17 -8.2 °C -11.8 °C 34395 hPa Calm   10.3 km/h 65 % 0 mm
15:22 -8.2 °C -11.6 °C 34395 hPa East 2.6 km/h 18.2 km/h 67 % 0 mm
15:27 -8.1 °C -11.9 °C 34384.8 hPa NE 10.3 km/h 18.2 km/h 64 % 0 mm
15:32 -8.2 °C -11.7 °C 34384.8 hPa ESE 5.1 km/h 18.2 km/h 66 % 0 mm
15:37 -8 °C -11.4 °C 34384.8 hPa Calm   15.6 km/h 67 % 0 mm
15:47 -7.8 °C -11.3 °C 34384.8 hPa NNW 5.1 km/h 18.2 km/h 67 % 0 mm
15:52 -8.1 °C -11.9 °C 34384.8 hPa NNE 5.1 km/h 18.2 km/h 64 % 0 mm
15:57 -8.5 °C -11.8 °C 34384.8 hPa Calm   10.3 km/h 68 % 0 mm
16:02 -8.3 °C -11.8 °C 34384.8 hPa SE 5.1 km/h 10.3 km/h 66 % 0 mm
16:07 -8.4 °C -11.9 °C 34384.8 hPa ENE 10.3 km/h 10.3 km/h 67 % 0 mm
16:12 -8.4 °C -11.9 °C 34371.3 hPa Calm   12.9 km/h 66 % 0 mm
16:17 -7.9 °C -11.7 °C 34371.3 hPa Calm   12.9 km/h 65 % 0 mm
16:27 -7.9 °C -11.7 °C 34371.3 hPa East 5.1 km/h 18.2 km/h 65 % 0 mm
16:32 -7.9 °C -11.4 °C 34371.3 hPa NNE 7.7 km/h 18.2 km/h 66 % 0 mm
16:42 -7.7 °C -11.8 °C 34371.3 hPa Calm   15.6 km/h 62 % 0 mm
16:47 -7.7 °C -11.9 °C 34371.3 hPa NNE 5.1 km/h 12.9 km/h 61 % 0 mm
16:57 -7.7 °C -12.1 °C 34361.1 hPa NE 5.1 km/h 15.6 km/h 60 % 0 mm
17:02 -7.7 °C -11.9 °C 34361.1 hPa Calm   15.6 km/h 61 % 0 mm
17:12 -8 °C -12.1 °C 34361.1 hPa Calm   10.3 km/h 62 % 0 mm
17:27 -8.1 °C -12.2 °C 34347.6 hPa ENE 7.7 km/h 12.9 km/h 62 % 0 mm
17:32 -8.1 °C -12.2 °C 34347.6 hPa ENE 5.1 km/h 12.9 km/h 62 % 0 mm
17:42 -8.1 °C -11.8 °C 34347.6 hPa SW 2.6 km/h 18.2 km/h 65 % 0 mm
17:47 -7.8 °C -12.2 °C 34347.6 hPa ESE 2.6 km/h 18.2 km/h 60 % 0 mm
17:57 -7.6 °C -12 °C 34337.4 hPa NE 5.1 km/h 10.3 km/h 60 % 0 mm
18:07 -8 °C -12.2 °C 34337.4 hPa NNE 7.7 km/h 10.3 km/h 61 % 0 mm
18:17 -8.2 °C -12.3 °C 34327.3 hPa Calm   20.8 km/h 62 % 0 mm
18:22 -8.2 °C -12.6 °C 34327.3 hPa Calm   15.6 km/h 60 % 0 mm
18:37 -8.7 °C -12.4 °C 34327.3 hPa Calm   12.9 km/h 64 % 0 mm
18:42 -8.7 °C -12.3 °C 34327.3 hPa NE 7.7 km/h 18.2 km/h 65 % 0 mm
18:47 -8.7 °C -12.4 °C 34327.3 hPa NNE 15.6 km/h 18.2 km/h 65 % 0 mm
19:02 -8.8 °C -12.5 °C 34313.7 hPa NNE 2.6 km/h 20.8 km/h 65 % 0 mm
19:12 -8.8 °C -12.2 °C 34313.7 hPa NNE 2.6 km/h 18.2 km/h 67 % 0 mm
19:17 -9 °C -12.7 °C 34313.7 hPa NNE 10.3 km/h 15.6 km/h 65 % 0 mm
19:22 -9.2 °C -13 °C 34313.7 hPa ESE 2.6 km/h 12.9 km/h 64 % 0 mm
19:27 -9.4 °C -12.9 °C 34313.7 hPa NNE 2.6 km/h 18.2 km/h 66 % 0 mm
19:32 -9.4 °C -12.8 °C 34313.7 hPa NNE 10.3 km/h 18.2 km/h 67 % 0 mm
19:37 -9.4 °C -12.4 °C 34313.7 hPa NE 7.7 km/h 15.6 km/h 70 % 0 mm
19:47 -9.5 °C -12.1 °C 34313.7 hPa Calm   15.6 km/h 74 % 0 mm
19:57 -9.5 °C -12.3 °C 34313.7 hPa Calm   12.9 km/h 72 % 0 mm
20:02 -9.6 °C -12.3 °C 34313.7 hPa Calm   12.9 km/h 72 % 0 mm
20:17 -9.8 °C -12.3 °C 34313.7 hPa NNE 2.6 km/h 10.3 km/h 75 % 0 mm
20:22 -10 °C -12.4 °C 34313.7 hPa NE 2.6 km/h 10.3 km/h 75 % 0 mm
20:32 -10.2 °C -12.5 °C 34313.7 hPa ENE 5.1 km/h 12.9 km/h 76 % 0 mm
20:37 -10.3 °C -12.5 °C 34303.6 hPa NNE 5.1 km/h 12.9 km/h 77 % 0 mm
20:42 -10.4 °C -12.5 °C 34313.7 hPa NE 5.1 km/h 10.3 km/h 78 % 0 mm
20:47 -10.4 °C -12.4 °C 34313.7 hPa Calm   10.3 km/h 79 % 0 mm
20:52 -10.6 °C -12.5 °C 34313.7 hPa Calm   10.3 km/h 80 % 0 mm
20:57 -10.7 °C -12.5 °C 34313.7 hPa Calm   7.7 km/h 81 % 0 mm
21:02 -10.8 °C -12.5 °C 34313.7 hPa Calm   5.1 km/h 82 % 0 mm
21:07 -10.9 °C -12.5 °C 34313.7 hPa Calm   5.1 km/h 83 % 0 mm
21:12 -11 °C -12.6 °C 34313.7 hPa Calm   7.7 km/h 83 % 0 mm
21:22 -11.2 °C -12.7 °C 34313.7 hPa Calm   7.7 km/h 83 % 0 mm
21:32 -11.3 °C -12.7 °C 34313.7 hPa NNE 2.6 km/h 5.1 km/h 84 % 0 mm
21:37 -11.3 °C -12.7 °C 34313.7 hPa Calm   5.1 km/h 85 % 0 mm
21:42 -11.4 °C -12.8 °C 34313.7 hPa Calm   7.7 km/h 85 % 0 mm
21:47 -11.5 °C -12.8 °C 34313.7 hPa ENE 2.6 km/h 7.7 km/h 86 % 0 mm
21:52 -11.6 °C -12.8 °C 34313.7 hPa Calm   7.7 km/h 87 % 0 mm
21:57 -11.7 °C -12.9 °C 34313.7 hPa Calm   5.1 km/h 87 % 0 mm
22:02 -11.8 °C -12.9 °C 34327.3 hPa Calm   5.1 km/h 88 % 0 mm
22:07 -11.9 °C -13 °C 34327.3 hPa Calm   2.6 km/h 88 % 0 mm
22:12 -12.1 °C -13 °C 34327.3 hPa Calm   5.1 km/h 89 % 0 mm
22:17 -12.1 °C -13 °C 34327.3 hPa Calm   5.1 km/h 89 % 0 mm
22:22 -12.2 °C -13.1 °C 34327.3 hPa Calm   5.1 km/h 90 % 0 mm
22:27 -12.2 °C -13.1 °C 34327.3 hPa NE 2.6 km/h 2.6 km/h 90 % 0 mm
22:32 -12.3 °C -13.1 °C 34327.3 hPa Calm   5.1 km/h 91 % 0 mm
22:37 -12.3 °C -13.1 °C 34327.3 hPa Calm   5.1 km/h 91 % 0 mm
22:42 -12.3 °C -13.1 °C 34327.3 hPa Calm   5.1 km/h 91 % 0 mm
22:47 -12.3 °C -13.1 °C 34327.3 hPa Calm   5.1 km/h 91 % 0 mm
22:52 -12.4 °C -13.2 °C 34327.3 hPa Calm   2.6 km/h 91 % 0 mm
22:57 -12.4 °C -13.2 °C 34327.3 hPa Calm   2.6 km/h 91 % 0 mm
23:02 -12.4 °C -13.2 °C 34327.3 hPa Calm   5.1 km/h 91 % 0 mm
23:07 -12.6 °C -13.3 °C 34327.3 hPa NNE 2.6 km/h 5.1 km/h 91 % 0 mm
23:12 -12.6 °C -13.3 °C 34327.3 hPa Calm   5.1 km/h 92 % 0 mm
23:17 -12.7 °C -13.3 °C 34327.3 hPa Calm   5.1 km/h 92 % 0 mm
23:22 -12.7 °C -13.3 °C 34327.3 hPa NE 2.6 km/h 5.1 km/h 93 % 0 mm
23:27 -12.7 °C -13.3 °C 34327.3 hPa ENE 2.6 km/h 5.1 km/h 93 % 0 mm
23:32 -12.7 °C -13.3 °C 34327.3 hPa Calm   5.1 km/h 93 % 0 mm
23:47 -12.7 °C -13.3 °C 34327.3 hPa Calm   7.7 km/h 93 % 0 mm
23:52 -12.7 °C -13.3 °C 34327.3 hPa Calm   7.7 km/h 93 % 0 mm
23:57 -12.7 °C -13.3 °C 34327.3 hPa East 2.6 km/h 5.1 km/h 93 % 0 mm
Meteo18
Compliments of Weather Underground - 4 mb

Script developed by  Jim McMurry - jmcmurry@mwt.net Adapted for the template by  Wim van der Kuil - Leuven-Template.eu

You find our weather info also at:

European Weather Network

Weather Underground

Equipment we use:

Weather-station
Davis Vue

Weather-program
Meteobridge

Weather-server
Raspberry PI 2 B+

Provider
1 and 1

Davis Vue

Meteobridge

Raspberry PI 2 B+

1 and 1